Bei Facebook empfehlenBei Twitter postenGoogle plusPinterest

Das Wetter im Erzgebirge am 02.06.2017

Wetter und Klima am 02.06.2017 Holzhau im Erzgebirge (630m ü.NN)
Letzte gemessene Temperatur und Uhrzeit der Messung23:45:00 Uhr10.40 °C
Temperatur (Maximum / Höchstwert) und Uhrzeit der Messung16:15:00 Uhr25.80 °C
Temperatur (Minimum / Tiefstwert) und Uhrzeit der Messung05:15:003.80 °C
Errechneter Absolutwert der Temperaturschwankungen zwischen Tmin und Tmax des Tages22.00 K
Errechnete Tagesmitteltemperatur15.68125 °C
Gesamt - Niederschlag des Tages (in flüssiger Form)0.00 Liter / m²
Luftdruck (Maximum / Höchstwert) und Zeitpunkt der Messung00:00:00 Uhr1017.80 hPa
Luftdruck (Minimum / Tiefstwert) und Zeitpunkt der Messung20:45:00 Uhr1014.00 hPa
Errechneter Absolutwert der Luftdruckschwankungen des Tages3.80 hPa
Höchste gemessene Windgeschwindigkeit und Uhrzeit der Messung11:15:00 Uhr66.24 km/h
Errechnete Windhäufigkeit in Relation zu den Messwerten des Tages18.75000 %
Niedrigste Windkühle (Windchill) und Zeitpunkt der Messung01:30:00 Uhr2.40 °C
Taupunkt (Maximum / Höchstwert) und Uhrzeit der Messung17:30:00 Uhr11.30 °C
Taupunkt (Minimum / Tiefstwert) und Uhrzeit der Messung00:30:000.30 °C
Anzahl der automatisch eingelesenen Messwerte 96

Detaillierte Wetter- und Klima- Messwerte für den 02.06.2017 in Holzhau im Erzgebirge (630m ü.NN)
ZeitTemperaturLuftdruckRel. LuftfeuchteWindWindrichtungWindchillTaupunktNiederschlag l/m²
23:45:0010.40 °C1014.30 hPa78.00 %32.40 km/hSO9.30 °C6.70 °C 
23:30:0010.40 °C1014.20 hPa77.00 %6.50 °C 
23:15:0010.90 °C1014.30 hPa76.00 %6.80 °C 
23:00:0011.20 °C1014.30 hPa75.00 %6.90 °C 
22:45:0011.60 °C1014.40 hPa74.00 %7.10 °C 
22:30:0011.90 °C1014.30 hPa72.00 %7.00 °C 
22:15:0012.40 °C1014.30 hPa71.00 %7.30 °C 
22:00:0012.70 °C1014.30 hPa69.00 %7.20 °C 
21:45:0013.20 °C1014.20 hPa66.00 %7.00 °C 
21:30:0014.10 °C1014.30 hPa63.00 %7.20 °C 
21:15:0015.10 °C1014.30 hPa59.00 %7.20 °C 
21:00:0016.20 °C1014.10 hPa58.00 %7.90 °C 
20:45:0017.30 °C1014.00 hPa56.00 %8.40 °C 
20:30:0018.50 °C1014.20 hPa54.00 %9.00 °C 
20:15:0019.30 °C1014.20 hPa51.00 %8.90 °C 
20:00:0019.90 °C1014.10 hPa49.00 %8.90 °C 
19:45:0020.60 °C1014.10 hPa48.00 %9.20 °C 
19:30:0021.40 °C1014.00 hPa46.00 %9.30 °C 
19:15:0021.90 °C1014.00 hPa46.00 %19.44 km/hSW23.20 °C9.80 °C 
19:00:0022.10 °C1014.00 hPa45.00 %9.60 °C 
18:45:0022.50 °C1014.00 hPa45.00 %9.00 km/hN22.50 °C10.00 °C 
18:30:0022.60 °C1014.20 hPa45.00 %10.10 °C 
18:15:0022.90 °C1014.20 hPa44.00 %21.96 km/hW24.30 °C10.00 °C 
18:00:0023.60 °C1014.30 hPa43.00 %10.30 °C 
17:45:0024.80 °C1014.30 hPa41.00 %10.70 °C 
17:30:0025.10 °C1014.50 hPa42.00 %11.30 °C 
17:15:0024.30 °C1014.50 hPa42.00 %10.60 °C 
17:00:0024.40 °C1014.60 hPa41.00 %10.30 °C 
16:45:0025.10 °C1014.70 hPa41.00 %10.90 °C 
16:30:0024.80 °C1014.70 hPa41.00 %10.70 °C 
16:15:0025.80 °C1014.60 hPa40.00 %11.20 °C 
16:00:0025.40 °C1014.90 hPa40.00 %10.80 °C 
15:45:0024.90 °C1014.80 hPa42.00 %2.52 km/hNW24.90 °C11.10 °C 
15:30:0024.30 °C1014.90 hPa41.00 %10.20 °C 
15:15:0025.00 °C1014.90 hPa42.00 %11.20 °C 
15:00:0023.80 °C1015.00 hPa42.00 %10.10 °C 
14:45:0023.90 °C1015.00 hPa42.00 %10.20 °C 
14:30:0024.90 °C1015.10 hPa39.00 %10.00 °C 
14:15:0025.10 °C1015.20 hPa38.00 %6.48 km/hSW25.10 °C9.80 °C 
14:00:0025.10 °C1015.40 hPa38.00 %9.80 °C 
13:45:0025.50 °C1015.60 hPa38.00 %10.10 °C 
13:30:0025.30 °C1015.70 hPa39.00 %10.40 °C 
13:15:0024.50 °C1015.90 hPa40.00 %10.00 °C 
13:00:0024.90 °C1015.80 hPa39.00 %30.96 km/hSSW26.50 °C10.00 °C 
12:45:0024.80 °C1015.90 hPa40.00 %6.48 km/hSW24.80 °C10.30 °C 
12:30:0024.50 °C1015.90 hPa41.00 %10.44 km/hNW24.50 °C10.40 °C 
12:15:0024.60 °C1016.00 hPa40.00 %40.32 km/hWSW26.00 °C10.10 °C 
12:00:0024.40 °C1016.10 hPa40.00 %9.90 °C 
11:45:0023.60 °C1016.20 hPa42.00 %9.90 °C 
11:30:0023.00 °C1016.20 hPa44.00 %10.10 °C 
11:15:0023.00 °C1016.10 hPa42.00 %66.24 km/hSW23.80 °C9.40 °C 
11:00:0023.30 °C1016.20 hPa44.00 %10.40 °C 
10:45:0022.40 °C1016.30 hPa45.00 %9.90 °C 
10:30:0022.30 °C1016.40 hPa45.00 %9.80 °C 
10:15:0022.00 °C1016.30 hPa45.00 %9.50 °C 
10:00:0021.90 °C1016.30 hPa44.00 %16.92 km/hWSW21.90 °C9.10 °C 
09:45:0021.60 °C1016.30 hPa44.00 %8.80 °C 
09:30:0021.00 °C1016.10 hPa44.00 %8.30 °C 
09:15:0020.50 °C1016.00 hPa46.00 %8.50 °C 
09:00:0020.10 °C1016.00 hPa52.00 %9.90 °C 
08:45:0019.30 °C1015.90 hPa56.00 %10.30 °C 
08:30:0018.40 °C1016.00 hPa59.00 %10.30 °C 
08:15:0017.80 °C1016.00 hPa60.00 %9.90 °C 
08:00:0016.90 °C1016.00 hPa61.00 %9.30 °C 
07:45:0015.40 °C1015.80 hPa65.00 %8.90 °C 
07:30:0013.50 °C1016.00 hPa69.00 %7.90 °C 
07:15:0010.20 °C1016.00 hPa78.00 %6.50 °C 
07:00:006.40 °C1016.10 hPa82.00 %3.60 °C 
06:45:005.90 °C1016.10 hPa83.00 %3.20 °C 
06:30:005.30 °C1016.10 hPa84.00 %2.80 °C 
06:15:004.60 °C1016.10 hPa84.00 %2.10 °C 
06:00:004.10 °C1016.40 hPa84.00 %1.60 °C 
05:45:004.10 °C1016.40 hPa84.00 %1.60 °C 
05:30:003.90 °C1016.30 hPa83.00 %1.30 °C 
05:15:003.80 °C1016.40 hPa83.00 %1.20 °C 
05:00:003.90 °C1016.50 hPa82.00 %10.44 km/hOSO3.90 °C1.10 °C 
04:45:004.20 °C1016.50 hPa81.00 %1.20 °C 
04:30:004.40 °C1016.40 hPa81.00 %1.40 °C 
04:15:004.30 °C1016.40 hPa82.00 %21.96 km/hSO2.90 °C1.50 °C 
04:00:004.00 °C1016.70 hPa81.00 %1.00 °C 
03:45:004.10 °C1016.70 hPa80.00 %1.00 °C 
03:30:004.30 °C1016.60 hPa79.00 %1.00 °C 
03:15:004.30 °C1016.60 hPa80.00 %1.20 °C 
03:00:004.10 °C1016.70 hPa79.00 %19.44 km/hSO2.90 °C0.80 °C 
02:45:004.10 °C1016.60 hPa79.00 %0.80 °C 
02:30:004.10 °C1016.70 hPa77.00 %0.40 °C 
02:15:004.40 °C1016.90 hPa78.00 %6.48 km/hOSO4.40 °C0.90 °C 
02:00:004.30 °C1017.10 hPa76.00 %0.50 °C 
01:45:004.40 °C1017.10 hPa76.00 %0.60 °C 
01:30:004.40 °C1017.40 hPa76.00 %29.88 km/hOSO2.40 °C0.60 °C 
01:15:004.60 °C1017.40 hPa75.00 %0.60 °C 
01:00:004.60 °C1017.40 hPa74.00 %0.40 °C 
00:45:004.90 °C1017.50 hPa74.00 %18.00 km/hO4.00 °C0.70 °C 
00:30:004.90 °C1017.70 hPa72.00 %0.30 °C 
00:15:005.40 °C1017.70 hPa71.00 %0.60 °C 
00:00:005.50 °C1017.80 hPa71.00 %0.70 °C 

Permanenter Link zu dieser Seite: Wetter im Erzgebirge am 02.06.2017
Performance-Info: Die Erstellung der Seite / Statistik(en) / Tabelle(n) erforderte 5 Datenbankserver-Abfrage(n) und dauerte 101 Millisekunden. (Dieser Messwert ist von der Gesamt-Auslastung des Servers abhängig.)
Erzgebirge - Wetter | Erzgebirge - Wetter (Mobilgeräte) | Komplette Klimadatenbank